Time;durP1;ratioP1;P1;durP2;ratioP2;P2;SDS_P1;SDS_P2;PMS_P1;PMS_P2;Temp;Humidity;BMP_temperature;BMP_pressure;BME280_temperature;BME280_humidity;BME280_pressure;Samples;Min_cycle;Max_cycle;Signal;HPM_P1;HPM_P2
2023/05/24 00:02:12;;;;;;;8.07;4.50;;;;;;;;;;5074099;28;20213;-77
2023/05/24 00:04:39;;;;;;;6.30;3.70;;;;;;;;;;5071411;28;20194;-77
2023/05/24 00:07:05;;;;;;;8.17;3.97;;;;;;;;;;5072324;28;20209;-75
2023/05/24 00:09:30;;;;;;;6.70;3.83;;;;;;;;;;5071046;28;20182;-75
2023/05/24 00:11:55;;;;;;;4.63;4.13;;;;;;;;;;5089414;28;20176;-75
2023/05/24 00:14:21;;;;;;;5.23;3.30;;;;;;;;;;5089761;28;20189;-77
2023/05/24 00:16:46;;;;;;;4.17;3.83;;;;;;;;;;5071044;28;20179;-77
2023/05/24 00:19:17;;;;;;;5.47;3.80;;;;;;;;;;5070846;28;20200;-77
2023/05/24 00:21:45;;;;;;;4.30;3.77;;;;;;;;;;5072571;28;20208;-76
2023/05/24 00:24:10;;;;;;;4.13;3.60;;;;;;;;;;5095253;28;20206;-76
2023/05/24 00:26:36;;;;;;;6.27;4.00;;;;;;;;;;5091101;28;20195;-77
2023/05/24 00:29:01;;;;;;;4.97;4.10;;;;;;;;;;5092594;28;20228;-76
2023/05/24 00:31:26;;;;;;;7.00;4.60;;;;;;;;;;5075455;28;20181;-77
2023/05/24 00:33:51;;;;;;;6.53;4.17;;;;;;;;;;5092578;28;20273;-77
2023/05/24 00:36:17;;;;;;;5.73;4.20;;;;;;;;;;5073914;28;20222;-76
2023/05/24 00:38:42;;;;;;;4.97;3.70;;;;;;;;;;5093065;28;20250;-76
2023/05/24 00:41:07;;;;;;;6.33;4.20;;;;;;;;;;5068993;28;20265;-74
2023/05/24 00:43:32;;;;;;;3.50;3.20;;;;;;;;;;5092832;28;20203;-75
2023/05/24 00:46:19;;;;;;;5.23;3.97;;;;;;;;;;5075159;28;20171;-75
2023/05/24 00:48:44;;;;;;;6.77;3.73;;;;;;;;;;5075507;28;20195;-75
2023/05/24 00:51:10;;;;;;;4.83;4.00;;;;;;;;;;5092699;28;20189;-75
2023/05/24 00:53:36;;;;;;;4.83;4.33;;;;;;;;;;5073260;28;20227;-74
2023/05/24 00:56:01;;;;;;;7.07;3.80;;;;;;;;;;5091479;28;20233;-75
2023/05/24 00:58:29;;;;;;;5.73;3.90;;;;;;;;;;5072623;28;20225;-74
2023/05/24 01:00:58;;;;;;;6.53;4.53;;;;;;;;;;5071767;28;20170;-74
2023/05/24 01:03:23;;;;;;;3.60;3.30;;;;;;;;;;5072428;28;20210;-74
2023/05/24 01:05:49;;;;;;;7.00;3.97;;;;;;;;;;5092216;28;20167;-74
2023/05/24 01:08:22;;;;;;;6.07;4.67;;;;;;;;;;5073631;28;20263;-74
2023/05/24 01:10:53;;;;;;;5.10;3.87;;;;;;;;;;5073950;28;20268;-74
2023/05/24 01:13:33;;;;;;;6.27;4.77;;;;;;;;;;5090641;28;20225;-74
2023/05/24 01:16:08;;;;;;;5.33;4.13;;;;;;;;;;5089825;28;20191;-75
2023/05/24 01:18:53;;;;;;;5.23;4.13;;;;;;;;;;5088438;28;20182;-74
2023/05/24 01:21:22;;;;;;;7.67;3.77;;;;;;;;;;5073306;28;20205;-75
2023/05/24 01:24:06;;;;;;;4.53;3.70;;;;;;;;;;5072467;28;20348;-74
2023/05/24 01:26:50;;;;;;;9.60;3.77;;;;;;;;;;5072631;28;20195;-74
2023/05/24 01:29:15;;;;;;;6.90;4.23;;;;;;;;;;5090973;28;20182;-75
2023/05/24 01:31:41;;;;;;;4.23;3.83;;;;;;;;;;5074124;28;20207;-75
2023/05/24 01:34:06;;;;;;;5.90;3.90;;;;;;;;;;5075066;28;20170;-75
2023/05/24 01:36:32;;;;;;;3.97;3.50;;;;;;;;;;5089312;28;20256;-75
2023/05/24 01:38:57;;;;;;;6.27;3.83;;;;;;;;;;5088202;28;20230;-74
2023/05/24 01:41:29;;;;;;;5.83;3.93;;;;;;;;;;5093149;28;20174;-74
2023/05/24 01:44:06;;;;;;;7.03;3.87;;;;;;;;;;5074309;28;20178;-75
2023/05/24 01:46:35;;;;;;;5.20;3.90;;;;;;;;;;5090213;28;20219;-74
2023/05/24 01:49:12;;;;;;;5.57;3.90;;;;;;;;;;5090952;28;20172;-74
2023/05/24 01:51:40;;;;;;;8.43;3.53;;;;;;;;;;5092621;28;20197;-74
2023/05/24 01:54:05;;;;;;;7.83;3.73;;;;;;;;;;5072337;28;20231;-74
2023/05/24 01:56:31;;;;;;;7.57;4.10;;;;;;;;;;5072527;28;20188;-75
2023/05/24 01:58:57;;;;;;;6.67;3.70;;;;;;;;;;5072581;28;20182;-74
2023/05/24 02:01:23;;;;;;;5.07;3.90;;;;;;;;;;5084554;28;20460;-74
2023/05/24 02:03:49;;;;;;;7.23;4.13;;;;;;;;;;5068218;28;20206;-74
2023/05/24 02:06:14;;;;;;;5.03;3.43;;;;;;;;;;5090936;28;20173;-74
2023/05/24 02:08:39;;;;;;;4.47;3.90;;;;;;;;;;5073449;28;20175;-74
2023/05/24 02:11:04;;;;;;;6.20;4.40;;;;;;;;;;5087801;28;20224;-74
2023/05/24 02:13:30;;;;;;;7.70;4.13;;;;;;;;;;5071010;28;20175;-75
2023/05/24 02:15:55;;;;;;;5.57;4.33;;;;;;;;;;5076060;28;20257;-74
2023/05/24 02:18:21;;;;;;;5.13;3.40;;;;;;;;;;5073820;28;20175;-73
2023/05/24 02:20:46;;;;;;;7.53;4.10;;;;;;;;;;5089703;28;20186;-73
2023/05/24 02:23:11;;;;;;;5.00;4.40;;;;;;;;;;5084902;28;20220;-73
2023/05/24 02:25:36;;;;;;;9.00;5.37;;;;;;;;;;5073444;28;20181;-73
2023/05/24 02:28:02;;;;;;;6.70;4.07;;;;;;;;;;5089165;28;20198;-73
2023/05/24 02:30:27;;;;;;;4.90;3.60;;;;;;;;;;5075737;28;20179;-73
2023/05/24 02:32:52;;;;;;;5.97;4.50;;;;;;;;;;5073711;28;20207;-73
2023/05/24 02:35:17;;;;;;;6.53;4.47;;;;;;;;;;5089014;28;20253;-73
2023/05/24 02:37:43;;;;;;;7.23;4.47;;;;;;;;;;5090292;28;20241;-73
2023/05/24 02:40:08;;;;;;;6.47;4.40;;;;;;;;;;5070262;28;20220;-73
2023/05/24 02:42:33;;;;;;;7.47;3.97;;;;;;;;;;5074095;28;20209;-73
2023/05/24 02:44:58;;;;;;;8.37;4.63;;;;;;;;;;5089362;28;20174;-73
2023/05/24 02:47:25;;;;;;;9.07;4.70;;;;;;;;;;5067691;28;20217;-73
2023/05/24 02:49:51;;;;;;;8.50;4.70;;;;;;;;;;5070046;28;20169;-73
2023/05/24 02:52:20;;;;;;;7.30;3.80;;;;;;;;;;5073983;28;20188;-73
2023/05/24 02:54:45;;;;;;;5.10;3.50;;;;;;;;;;5088854;28;20257;-73
2023/05/24 02:57:10;;;;;;;7.83;4.07;;;;;;;;;;5072648;28;20272;-73
2023/05/24 02:59:35;;;;;;;7.67;4.27;;;;;;;;;;5071797;28;20181;-73
2023/05/24 03:02:01;;;;;;;7.40;4.60;;;;;;;;;;5086293;28;20186;-73
2023/05/24 03:04:26;;;;;;;11.03;4.83;;;;;;;;;;5072099;28;20184;-73
2023/05/24 03:06:52;;;;;;;4.23;3.43;;;;;;;;;;5090514;28;20234;-73
2023/05/24 03:09:17;;;;;;;7.47;4.10;;;;;;;;;;5071874;28;20201;-73
2023/05/24 03:11:43;;;;;;;7.50;3.70;;;;;;;;;;5069427;28;20268;-73
2023/05/24 03:14:09;;;;;;;7.20;4.03;;;;;;;;;;5072520;28;20208;-73
2023/05/24 03:16:35;;;;;;;8.37;4.57;;;;;;;;;;5071959;28;20170;-73
2023/05/24 03:19:00;;;;;;;5.27;3.73;;;;;;;;;;5074717;28;20185;-72
2023/05/24 03:21:26;;;;;;;8.33;4.30;;;;;;;;;;5087844;28;20177;-73
2023/05/24 03:23:51;;;;;;;7.73;4.53;;;;;;;;;;5089759;28;20188;-73
2023/05/24 03:26:17;;;;;;;6.53;3.97;;;;;;;;;;5069624;28;20176;-73
2023/05/24 03:28:43;;;;;;;6.83;4.37;;;;;;;;;;5069066;28;20179;-73
2023/05/24 03:31:08;;;;;;;7.10;4.47;;;;;;;;;;5069915;28;20188;-73
2023/05/24 03:33:33;;;;;;;8.27;4.37;;;;;;;;;;5073294;28;20184;-73
2023/05/24 03:35:59;;;;;;;11.07;4.57;;;;;;;;;;5087493;28;20184;-73
2023/05/24 03:38:24;;;;;;;8.07;4.30;;;;;;;;;;5080967;28;20222;-73
2023/05/24 03:40:49;;;;;;;9.10;4.47;;;;;;;;;;5047597;28;20196;-73
2023/05/24 03:43:15;;;;;;;5.83;4.40;;;;;;;;;;5049694;28;20185;-73
2023/05/24 03:45:41;;;;;;;5.90;4.00;;;;;;;;;;5067571;28;20243;-73
2023/05/24 03:48:06;;;;;;;7.63;4.60;;;;;;;;;;5057962;28;20197;-73
2023/05/24 03:50:31;;;;;;;14.47;4.47;;;;;;;;;;5049824;28;20182;-73
2023/05/24 03:52:56;;;;;;;8.60;4.30;;;;;;;;;;5049702;28;20204;-73
2023/05/24 03:55:22;;;;;;;9.83;4.27;;;;;;;;;;5065071;28;20186;-73
2023/05/24 03:57:47;;;;;;;7.57;4.70;;;;;;;;;;5048650;28;20204;-73
2023/05/24 04:00:12;;;;;;;6.67;4.20;;;;;;;;;;5069794;28;20212;-73
2023/05/24 04:02:38;;;;;;;12.40;4.67;;;;;;;;;;5052810;28;20263;-73
2023/05/24 04:05:04;;;;;;;5.83;4.07;;;;;;;;;;5050259;28;20255;-73
2023/05/24 04:07:32;;;;;;;6.60;4.10;;;;;;;;;;5070322;28;20213;-73
2023/05/24 04:09:58;;;;;;;11.20;4.10;;;;;;;;;;5056357;28;20183;-73
2023/05/24 04:12:23;;;;;;;4.87;3.93;;;;;;;;;;5060625;28;20236;-73
2023/05/24 04:14:48;;;;;;;8.73;4.53;;;;;;;;;;5066507;28;20179;-73
2023/05/24 04:17:13;;;;;;;8.07;4.57;;;;;;;;;;5055380;28;20185;-73
2023/05/24 04:19:39;;;;;;;10.57;4.40;;;;;;;;;;5075248;28;20173;-72
2023/05/24 04:22:04;;;;;;;8.07;3.97;;;;;;;;;;5044681;28;20310;-73
2023/05/24 04:24:29;;;;;;;6.90;4.63;;;;;;;;;;5055321;28;20189;-73
2023/05/24 04:26:57;;;;;;;7.10;4.37;;;;;;;;;;5066809;28;20208;-73
2023/05/24 04:29:25;;;;;;;7.67;4.23;;;;;;;;;;5073363;28;20184;-72
2023/05/24 04:31:51;;;;;;;7.17;4.10;;;;;;;;;;5068196;28;20170;-73
2023/05/24 04:34:16;;;;;;;7.20;4.10;;;;;;;;;;5048466;28;20176;-73
2023/05/24 04:36:41;;;;;;;9.90;4.47;;;;;;;;;;5062616;28;20193;-73
2023/05/24 04:39:06;;;;;;;5.60;4.00;;;;;;;;;;5087818;28;20247;-73
2023/05/24 04:41:34;;;;;;;8.30;4.93;;;;;;;;;;5074520;28;20181;-73
2023/05/24 04:43:59;;;;;;;5.80;4.53;;;;;;;;;;5075419;28;20195;-73
2023/05/24 04:46:25;;;;;;;4.90;4.00;;;;;;;;;;5074912;28;20184;-73
2023/05/24 04:48:51;;;;;;;7.57;4.10;;;;;;;;;;5075275;28;20177;-73
2023/05/24 04:51:16;;;;;;;7.97;4.33;;;;;;;;;;5077678;28;20198;-73
2023/05/24 04:53:41;;;;;;;5.37;3.80;;;;;;;;;;5082234;28;20172;-73
2023/05/24 04:56:07;;;;;;;7.13;4.43;;;;;;;;;;5072336;28;20193;-73
2023/05/24 04:58:32;;;;;;;14.40;4.77;;;;;;;;;;5089279;28;20204;-72
2023/05/24 05:00:57;;;;;;;8.40;4.50;;;;;;;;;;5070775;28;20175;-72
2023/05/24 05:03:23;;;;;;;10.67;4.60;;;;;;;;;;5076906;28;20215;-73
2023/05/24 05:05:48;;;;;;;7.40;4.93;;;;;;;;;;5069905;28;20202;-73
2023/05/24 05:08:14;;;;;;;8.83;4.40;;;;;;;;;;5092306;28;20299;-73
2023/05/24 05:10:39;;;;;;;10.57;4.70;;;;;;;;;;5093379;28;20271;-74
2023/05/24 05:13:05;;;;;;;9.27;4.73;;;;;;;;;;5067562;28;20283;-73
2023/05/24 05:15:31;;;;;;;5.90;4.50;;;;;;;;;;5075966;28;20173;-74
2023/05/24 05:17:56;;;;;;;6.40;4.70;;;;;;;;;;5082774;28;20183;-74
2023/05/24 05:20:23;;;;;;;8.77;4.27;;;;;;;;;;5094535;28;20230;-74
2023/05/24 05:22:48;;;;;;;12.80;5.00;;;;;;;;;;5073953;28;20226;-75
2023/05/24 05:25:14;;;;;;;8.47;4.93;;;;;;;;;;5075658;28;20187;-74
2023/05/24 05:27:39;;;;;;;9.60;4.50;;;;;;;;;;5077125;28;20242;-74
2023/05/24 05:30:04;;;;;;;5.23;4.10;;;;;;;;;;5072821;28;20255;-75
2023/05/24 05:32:30;;;;;;;7.10;4.63;;;;;;;;;;5089750;28;20176;-76
2023/05/24 05:34:55;;;;;;;6.67;4.40;;;;;;;;;;5088602;28;20204;-74
2023/05/24 05:37:20;;;;;;;7.03;4.70;;;;;;;;;;5066217;28;20213;-73
2023/05/24 05:39:45;;;;;;;8.90;4.43;;;;;;;;;;5057120;28;20200;-74
2023/05/24 05:42:10;;;;;;;9.57;4.57;;;;;;;;;;5054208;28;20192;-73
2023/05/24 05:44:36;;;;;;;7.70;4.53;;;;;;;;;;5050473;28;20173;-74
2023/05/24 05:47:02;;;;;;;7.63;5.00;;;;;;;;;;5045624;28;20205;-74
2023/05/24 05:49:27;;;;;;;9.93;4.97;;;;;;;;;;5067244;28;20181;-74
2023/05/24 05:51:53;;;;;;;13.93;5.47;;;;;;;;;;5060896;28;20180;-73
2023/05/24 05:54:18;;;;;;;7.17;4.30;;;;;;;;;;5065919;28;20183;-73
2023/05/24 05:56:46;;;;;;;8.07;4.30;;;;;;;;;;5050537;28;20192;-74
2023/05/24 05:59:12;;;;;;;8.70;4.37;;;;;;;;;;5048641;28;20185;-73
2023/05/24 06:01:38;;;;;;;6.13;4.20;;;;;;;;;;5065340;28;20191;-74
2023/05/24 06:04:03;;;;;;;9.40;4.73;;;;;;;;;;5057631;28;20208;-74
2023/05/24 06:06:28;;;;;;;9.90;4.73;;;;;;;;;;5054147;28;20189;-74
2023/05/24 06:08:53;;;;;;;8.37;4.50;;;;;;;;;;5051461;28;20189;-74
2023/05/24 06:11:18;;;;;;;8.10;5.30;;;;;;;;;;5065103;28;20188;-74
2023/05/24 06:13:44;;;;;;;8.60;4.63;;;;;;;;;;5052536;28;20173;-74
2023/05/24 06:16:09;;;;;;;10.07;5.03;;;;;;;;;;5045561;28;20185;-76
2023/05/24 06:18:35;;;;;;;8.27;5.17;;;;;;;;;;5068986;28;20245;-76
2023/05/24 06:21:00;;;;;;;9.23;4.40;;;;;;;;;;5058896;28;20181;-75
2023/05/24 06:23:25;;;;;;;13.47;4.57;;;;;;;;;;5052662;28;20211;-75
2023/05/24 06:25:51;;;;;;;13.07;4.73;;;;;;;;;;5050497;28;20187;-76
2023/05/24 06:28:16;;;;;;;8.33;4.80;;;;;;;;;;5063067;28;20227;-75
2023/05/24 06:30:41;;;;;;;7.40;4.27;;;;;;;;;;5059356;28;20259;-77
2023/05/24 06:33:06;;;;;;;5.10;3.97;;;;;;;;;;5062778;28;20184;-75
2023/05/24 06:35:31;;;;;;;7.30;4.20;;;;;;;;;;5061454;28;20185;-75
2023/05/24 06:37:57;;;;;;;9.97;4.33;;;;;;;;;;5050782;28;20301;-74
2023/05/24 06:40:22;;;;;;;8.27;4.03;;;;;;;;;;5072698;28;20241;-75
2023/05/24 06:42:47;;;;;;;6.50;4.67;;;;;;;;;;5091755;28;20202;-75
2023/05/24 06:45:13;;;;;;;6.20;4.47;;;;;;;;;;5072980;28;20229;-75
2023/05/24 06:47:38;;;;;;;10.47;4.80;;;;;;;;;;5091554;28;20202;-75
2023/05/24 06:50:03;;;;;;;7.67;4.40;;;;;;;;;;5072866;28;20338;-75
2023/05/24 06:52:29;;;;;;;17.50;4.73;;;;;;;;;;5073904;28;20217;-75
2023/05/24 06:54:54;;;;;;;13.07;5.37;;;;;;;;;;5072432;28;20185;-75
2023/05/24 06:57:19;;;;;;;10.87;4.80;;;;;;;;;;5091994;28;20172;-76
2023/05/24 06:59:44;;;;;;;6.47;4.37;;;;;;;;;;5089924;28;20183;-76
2023/05/24 07:02:10;;;;;;;23.87;7.57;;;;;;;;;;5065402;28;20184;-75
2023/05/24 07:04:35;;;;;;;7.63;5.10;;;;;;;;;;5091072;28;20197;-76
2023/05/24 07:07:01;;;;;;;7.20;4.77;;;;;;;;;;5091265;28;20225;-75
2023/05/24 07:09:27;;;;;;;8.17;4.70;;;;;;;;;;5090965;28;20204;-75
2023/05/24 07:11:52;;;;;;;5.63;4.30;;;;;;;;;;5084714;28;20196;-75
2023/05/24 07:14:17;;;;;;;7.47;5.00;;;;;;;;;;5091106;28;20259;-75
2023/05/24 07:16:42;;;;;;;7.37;4.27;;;;;;;;;;5073116;28;20203;-75
2023/05/24 07:19:08;;;;;;;11.03;4.73;;;;;;;;;;5089161;28;20182;-75
2023/05/24 07:21:33;;;;;;;7.50;4.53;;;;;;;;;;5073050;28;20185;-75
2023/05/24 07:23:58;;;;;;;9.63;4.40;;;;;;;;;;5090629;28;20203;-75
2023/05/24 07:26:24;;;;;;;10.90;4.60;;;;;;;;;;5073324;28;20191;-75
2023/05/24 07:28:49;;;;;;;7.67;4.07;;;;;;;;;;5071209;28;20188;-75
2023/05/24 07:31:15;;;;;;;8.33;4.60;;;;;;;;;;5072344;28;20915;-75
2023/05/24 07:33:40;;;;;;;8.40;4.77;;;;;;;;;;5072879;28;20173;-75
2023/05/24 07:36:06;;;;;;;8.77;4.50;;;;;;;;;;5073104;28;20206;-75
2023/05/24 07:38:31;;;;;;;7.77;5.10;;;;;;;;;;5072562;28;20239;-75
2023/05/24 07:41:00;;;;;;;7.50;4.83;;;;;;;;;;5089160;28;20176;-75
2023/05/24 07:43:26;;;;;;;6.63;4.60;;;;;;;;;;5090470;28;20179;-75
2023/05/24 07:45:51;;;;;;;7.23;4.40;;;;;;;;;;5070180;28;20231;-75
2023/05/24 07:48:16;;;;;;;9.63;5.30;;;;;;;;;;5072877;28;20193;-75
2023/05/24 07:50:41;;;;;;;11.13;5.00;;;;;;;;;;5072274;28;20176;-74
2023/05/24 07:53:06;;;;;;;7.17;4.67;;;;;;;;;;5090851;28;20185;-74
2023/05/24 07:55:32;;;;;;;6.97;4.30;;;;;;;;;;5069397;28;20255;-73
2023/05/24 07:57:57;;;;;;;9.73;5.10;;;;;;;;;;5071477;28;20184;-75
2023/05/24 08:00:22;;;;;;;9.30;5.03;;;;;;;;;;5087408;28;20172;-73
2023/05/24 08:02:48;;;;;;;13.77;5.37;;;;;;;;;;5066556;28;20235;-73
2023/05/24 08:05:13;;;;;;;6.77;4.80;;;;;;;;;;5071886;28;20238;-73
2023/05/24 08:07:40;;;;;;;9.50;5.03;;;;;;;;;;5072403;28;20252;-74
2023/05/24 08:10:06;;;;;;;10.20;5.90;;;;;;;;;;5072721;28;20176;-74
2023/05/24 08:12:31;;;;;;;11.73;6.67;;;;;;;;;;5089372;28;20260;-74
2023/05/24 08:14:57;;;;;;;7.20;4.80;;;;;;;;;;5072288;28;20238;-74
2023/05/24 08:17:22;;;;;;;8.20;5.27;;;;;;;;;;5072713;28;20180;-74
2023/05/24 08:19:47;;;;;;;9.40;5.23;;;;;;;;;;5088227;28;20172;-74
2023/05/24 08:22:13;;;;;;;8.73;5.07;;;;;;;;;;5071211;28;20226;-75
2023/05/24 08:24:38;;;;;;;9.47;5.23;;;;;;;;;;5072468;28;20192;-75
2023/05/24 08:27:03;;;;;;;11.87;4.90;;;;;;;;;;5072104;28;20185;-74
2023/05/24 08:29:29;;;;;;;7.37;4.87;;;;;;;;;;5089957;28;20221;-75
2023/05/24 08:31:54;;;;;;;11.37;5.33;;;;;;;;;;5071532;28;20207;-74
2023/05/24 08:34:19;;;;;;;14.10;6.57;;;;;;;;;;5072377;28;20177;-76
2023/05/24 08:36:45;;;;;;;8.93;5.33;;;;;;;;;;5088154;28;20191;-74
2023/05/24 08:39:10;;;;;;;13.20;6.43;;;;;;;;;;5090337;28;20311;-74
2023/05/24 08:41:38;;;;;;;11.47;5.33;;;;;;;;;;5089856;28;20172;-74
2023/05/24 08:44:07;;;;;;;7.10;5.07;;;;;;;;;;5093377;28;20176;-74
2023/05/24 08:46:35;;;;;;;9.17;5.00;;;;;;;;;;5076107;28;20180;-74
2023/05/24 08:49:04;;;;;;;8.97;5.07;;;;;;;;;;5075411;28;20250;-74
2023/05/24 08:51:30;;;;;;;11.63;4.90;;;;;;;;;;5075362;28;20200;-74
2023/05/24 08:53:57;;;;;;;6.63;5.00;;;;;;;;;;5074499;28;20169;-74
2023/05/24 08:56:23;;;;;;;9.83;5.23;;;;;;;;;;5075296;28;20256;-74
2023/05/24 08:58:49;;;;;;;8.47;5.20;;;;;;;;;;5075944;28;20204;-74
2023/05/24 09:01:15;;;;;;;6.77;5.20;;;;;;;;;;5085091;28;20180;-74
2023/05/24 09:03:41;;;;;;;11.97;5.40;;;;;;;;;;5074621;28;20351;-74
2023/05/24 09:06:08;;;;;;;8.10;5.60;;;;;;;;;;5093667;28;20184;-74
2023/05/24 09:08:34;;;;;;;7.93;5.00;;;;;;;;;;5093533;28;20205;-74
2023/05/24 09:11:00;;;;;;;11.20;4.33;;;;;;;;;;5071769;28;20262;-74
2023/05/24 09:13:26;;;;;;;8.87;5.10;;;;;;;;;;5074647;28;20177;-74
2023/05/24 09:15:52;;;;;;;8.67;5.20;;;;;;;;;;5091959;28;20192;-74
2023/05/24 09:18:17;;;;;;;8.67;5.20;;;;;;;;;;5093490;28;20200;-74
2023/05/24 09:20:43;;;;;;;13.83;6.17;;;;;;;;;;5075451;28;20181;-74
2023/05/24 09:23:08;;;;;;;9.10;5.70;;;;;;;;;;5092310;28;20245;-75
2023/05/24 09:25:34;;;;;;;10.30;5.93;;;;;;;;;;5092657;28;20213;-75
2023/05/24 09:28:04;;;;;;;7.93;5.50;;;;;;;;;;5073836;28;20296;-74
2023/05/24 09:30:29;;;;;;;8.40;5.63;;;;;;;;;;5075275;28;20184;-74
2023/05/24 09:32:59;;;;;;;11.30;5.60;;;;;;;;;;5074481;28;20280;-74
2023/05/24 09:35:27;;;;;;;9.17;5.90;;;;;;;;;;5075117;28;20192;-74
2023/05/24 09:37:54;;;;;;;8.57;5.83;;;;;;;;;;5075075;28;20373;-75
2023/05/24 09:40:19;;;;;;;11.13;5.30;;;;;;;;;;5074246;28;20260;-74
2023/05/24 09:42:45;;;;;;;11.37;5.33;;;;;;;;;;5074190;28;20211;-75
2023/05/24 09:45:11;;;;;;;10.73;6.73;;;;;;;;;;5069866;28;20179;-74
2023/05/24 09:47:37;;;;;;;10.20;5.97;;;;;;;;;;5075097;28;20189;-74
2023/05/24 09:50:03;;;;;;;10.97;6.70;;;;;;;;;;5074228;28;20187;-75
2023/05/24 09:52:28;;;;;;;8.17;5.13;;;;;;;;;;5074679;28;20177;-75
2023/05/24 09:54:54;;;;;;;7.57;4.50;;;;;;;;;;5091509;28;20173;-75
2023/05/24 09:57:22;;;;;;;8.30;5.47;;;;;;;;;;5092721;28;20233;-74
2023/05/24 09:59:51;;;;;;;12.27;5.17;;;;;;;;;;5091053;28;20193;-75
2023/05/24 10:02:19;;;;;;;9.03;5.27;;;;;;;;;;5085607;28;20201;-75
2023/05/24 10:04:44;;;;;;;8.70;5.43;;;;;;;;;;5074568;28;20177;-74
2023/05/24 10:07:11;;;;;;;9.97;5.10;;;;;;;;;;5074332;28;20193;-75
2023/05/24 10:09:36;;;;;;;10.33;5.47;;;;;;;;;;5074020;28;20216;-75
2023/05/24 10:12:03;;;;;;;10.27;5.53;;;;;;;;;;5089491;28;20181;-74
2023/05/24 10:14:32;;;;;;;7.93;4.57;;;;;;;;;;5071229;28;20186;-74
2023/05/24 10:16:58;;;;;;;10.90;5.63;;;;;;;;;;5072539;28;20185;-74
2023/05/24 10:19:24;;;;;;;12.10;5.40;;;;;;;;;;5070369;28;20177;-74
2023/05/24 10:21:50;;;;;;;10.40;5.00;;;;;;;;;;5071549;28;20177;-74
2023/05/24 10:24:18;;;;;;;8.03;5.30;;;;;;;;;;5072354;28;20204;-74
2023/05/24 10:26:46;;;;;;;11.23;6.10;;;;;;;;;;5090617;28;20181;-74
2023/05/24 10:29:18;;;;;;;9.80;5.23;;;;;;;;;;5073571;28;20186;-74
2023/05/24 10:31:43;;;;;;;9.60;5.20;;;;;;;;;;5073325;28;20188;-74
2023/05/24 10:34:09;;;;;;;8.73;4.90;;;;;;;;;;5091899;28;20166;-74
2023/05/24 10:36:35;;;;;;;6.70;4.80;;;;;;;;;;5073007;28;20262;-74
2023/05/24 10:39:01;;;;;;;10.80;6.20;;;;;;;;;;5091683;28;20338;-75
2023/05/24 10:41:26;;;;;;;8.03;4.83;;;;;;;;;;5073227;28;20182;-74
2023/05/24 10:43:52;;;;;;;10.50;5.63;;;;;;;;;;5072572;28;20175;-74
2023/05/24 10:46:20;;;;;;;6.77;5.27;;;;;;;;;;5073811;28;20174;-74
2023/05/24 10:48:57;;;;;;;8.30;5.17;;;;;;;;;;5091780;28;20212;-74
2023/05/24 10:51:32;;;;;;;9.93;5.00;;;;;;;;;;5073794;28;20194;-74
2023/05/24 10:54:09;;;;;;;7.63;5.30;;;;;;;;;;5086939;28;20182;-74
2023/05/24 10:56:38;;;;;;;6.30;5.30;;;;;;;;;;5090886;28;20182;-74
2023/05/24 10:59:05;;;;;;;7.00;4.30;;;;;;;;;;5073572;28;20247;-74
2023/05/24 11:01:31;;;;;;;9.10;4.50;;;;;;;;;;5074538;28;20217;-74
2023/05/24 11:04:06;;;;;;;7.83;5.10;;;;;;;;;;5072767;28;20234;-74
2023/05/24 11:06:48;;;;;;;6.77;4.83;;;;;;;;;;5072991;28;20262;-74
2023/05/24 11:09:14;;;;;;;9.73;4.97;;;;;;;;;;5072420;28;20180;-74
2023/05/24 11:11:43;;;;;;;10.77;5.40;;;;;;;;;;5091156;28;20179;-74
2023/05/24 11:14:09;;;;;;;8.80;5.03;;;;;;;;;;5070678;28;20180;-74
2023/05/24 11:16:38;;;;;;;7.20;4.77;;;;;;;;;;5073087;28;20265;-74
2023/05/24 11:19:10;;;;;;;7.77;4.90;;;;;;;;;;5086591;28;20215;-74
2023/05/24 11:21:36;;;;;;;8.10;5.00;;;;;;;;;;5090733;28;20342;-74
2023/05/24 11:24:02;;;;;;;8.27;4.70;;;;;;;;;;5072808;28;20263;-74
2023/05/24 11:26:27;;;;;;;15.33;5.50;;;;;;;;;;5086644;28;20169;-74
2023/05/24 11:28:53;;;;;;;10.63;5.20;;;;;;;;;;5078843;28;20215;-74
2023/05/24 11:31:25;;;;;;;11.93;5.40;;;;;;;;;;5071727;28;20173;-74
2023/05/24 11:33:50;;;;;;;9.90;5.70;;;;;;;;;;5089673;28;20172;-74
2023/05/24 11:36:16;;;;;;;7.57;4.90;;;;;;;;;;5089754;28;20165;-74
2023/05/24 11:38:41;;;;;;;10.57;5.00;;;;;;;;;;5072267;28;20224;-74
2023/05/24 11:41:07;;;;;;;9.10;5.10;;;;;;;;;;5072633;28;20184;-74
2023/05/24 11:43:32;;;;;;;6.67;4.80;;;;;;;;;;5072632;28;20189;-74
2023/05/24 11:45:57;;;;;;;7.10;5.13;;;;;;;;;;5091083;28;20183;-74
2023/05/24 11:48:23;;;;;;;6.50;5.17;;;;;;;;;;5072545;28;20198;-74
2023/05/24 11:50:48;;;;;;;8.33;4.70;;;;;;;;;;5072275;28;20218;-74
2023/05/24 11:53:15;;;;;;;8.37;3.67;;;;;;;;;;5073022;28;20214;-74
2023/05/24 11:55:41;;;;;;;6.63;4.80;;;;;;;;;;5090795;28;20170;-74
2023/05/24 11:58:15;;;;;;;9.03;5.07;;;;;;;;;;5089956;28;20285;-74
2023/05/24 12:00:41;;;;;;;7.20;4.57;;;;;;;;;;5084211;28;20236;-74
2023/05/24 12:03:08;;;;;;;6.30;4.77;;;;;;;;;;5090238;28;20203;-74
2023/05/24 12:05:33;;;;;;;9.00;4.73;;;;;;;;;;5090495;28;20175;-74
2023/05/24 12:08:00;;;;;;;9.77;4.87;;;;;;;;;;5072223;28;20214;-74
2023/05/24 12:10:25;;;;;;;8.17;4.70;;;;;;;;;;5089515;28;20179;-75
2023/05/24 12:12:51;;;;;;;7.40;4.77;;;;;;;;;;5090308;28;20194;-74
2023/05/24 12:15:17;;;;;;;6.80;4.10;;;;;;;;;;5085909;28;20177;-74
2023/05/24 12:17:42;;;;;;;10.13;3.70;;;;;;;;;;5069589;28;20216;-74
2023/05/24 12:20:08;;;;;;;6.73;4.37;;;;;;;;;;5074143;28;20211;-74
2023/05/24 12:22:34;;;;;;;8.40;4.30;;;;;;;;;;5093582;28;20216;-74
2023/05/24 12:24:59;;;;;;;8.37;4.40;;;;;;;;;;5093460;28;20187;-74
2023/05/24 12:27:26;;;;;;;6.70;4.30;;;;;;;;;;5073747;28;20231;-74
2023/05/24 12:29:51;;;;;;;6.47;4.63;;;;;;;;;;5088301;28;20238;-74
2023/05/24 12:32:16;;;;;;;10.23;4.60;;;;;;;;;;5066813;28;20181;-74
2023/05/24 12:34:42;;;;;;;5.30;3.90;;;;;;;;;;5073117;28;20172;-73
2023/05/24 12:37:08;;;;;;;10.37;4.23;;;;;;;;;;5072188;28;20180;-74
2023/05/24 12:39:34;;;;;;;6.57;4.17;;;;;;;;;;5093838;28;20240;-74
2023/05/24 12:42:02;;;;;;;8.77;5.13;;;;;;;;;;5093948;28;20236;-74
2023/05/24 12:44:35;;;;;;;6.67;4.17;;;;;;;;;;5091730;28;20279;-74
2023/05/24 12:47:01;;;;;;;6.43;4.13;;;;;;;;;;5072337;28;20204;-74
2023/05/24 12:49:26;;;;;;;9.53;4.63;;;;;;;;;;5093791;28;20169;-74
2023/05/24 12:51:52;;;;;;;7.80;4.13;;;;;;;;;;5067382;28;20184;-74
2023/05/24 12:54:18;;;;;;;7.07;3.37;;;;;;;;;;5078310;28;20180;-74
2023/05/24 12:56:43;;;;;;;9.23;4.23;;;;;;;;;;5073140;28;20174;-74
2023/05/24 12:59:08;;;;;;;9.70;3.53;;;;;;;;;;5076845;28;20203;-74
2023/05/24 13:01:34;;;;;;;7.17;3.80;;;;;;;;;;5068715;28;20178;-74
2023/05/24 13:03:59;;;;;;;5.40;3.23;;;;;;;;;;5092560;28;20227;-74
2023/05/24 13:06:25;;;;;;;7.33;3.40;;;;;;;;;;5074079;28;20266;-74
2023/05/24 13:08:51;;;;;;;8.10;3.50;;;;;;;;;;5088372;28;20204;-74
2023/05/24 13:11:16;;;;;;;8.33;3.90;;;;;;;;;;5071171;28;20180;-74
2023/05/24 13:13:43;;;;;;;6.70;3.50;;;;;;;;;;5073404;28;20182;-74
2023/05/24 13:16:09;;;;;;;7.20;3.30;;;;;;;;;;5069394;28;20176;-74
2023/05/24 13:18:34;;;;;;;9.90;3.73;;;;;;;;;;5075388;28;20183;-74
2023/05/24 13:21:00;;;;;;;8.00;3.83;;;;;;;;;;5091464;28;20192;-74
2023/05/24 13:23:25;;;;;;;6.47;3.70;;;;;;;;;;5093026;28;20336;-74
2023/05/24 13:25:51;;;;;;;6.40;3.30;;;;;;;;;;5071830;28;20177;-74
2023/05/24 13:28:16;;;;;;;4.00;3.20;;;;;;;;;;5072033;28;20196;-74
2023/05/24 13:30:41;;;;;;;6.60;3.10;;;;;;;;;;5090290;28;20263;-74
2023/05/24 13:33:07;;;;;;;7.87;3.80;;;;;;;;;;5074641;28;20172;-74
2023/05/24 13:35:32;;;;;;;4.83;3.00;;;;;;;;;;5080603;28;20207;-74
2023/05/24 13:37:57;;;;;;;9.00;3.77;;;;;;;;;;5092602;28;20229;-74
2023/05/24 13:40:23;;;;;;;4.90;2.93;;;;;;;;;;5070242;28;20181;-74
2023/05/24 13:42:49;;;;;;;6.23;3.50;;;;;;;;;;5094890;28;20176;-74
2023/05/24 13:45:14;;;;;;;7.77;3.53;;;;;;;;;;5086688;28;20179;-74
2023/05/24 13:47:39;;;;;;;8.93;4.07;;;;;;;;;;5073369;28;20230;-74
2023/05/24 13:50:05;;;;;;;6.43;3.20;;;;;;;;;;5068665;28;20191;-74
2023/05/24 13:52:31;;;;;;;5.97;3.07;;;;;;;;;;5074983;28;20180;-74
2023/05/24 13:54:56;;;;;;;7.37;3.93;;;;;;;;;;5091202;28;20184;-74
2023/05/24 13:57:22;;;;;;;5.67;3.83;;;;;;;;;;5091267;28;20177;-74
2023/05/24 13:59:47;;;;;;;5.30;3.30;;;;;;;;;;5070314;28;20202;-74
2023/05/24 14:02:13;;;;;;;6.43;3.60;;;;;;;;;;5069096;28;20204;-74
2023/05/24 14:04:38;;;;;;;5.30;3.20;;;;;;;;;;5090407;28;20207;-74
2023/05/24 14:07:04;;;;;;;10.27;2.93;;;;;;;;;;5071071;28;20258;-74
2023/05/24 14:09:29;;;;;;;4.33;2.87;;;;;;;;;;5092545;28;20207;-74
2023/05/24 14:11:54;;;;;;;8.60;3.10;;;;;;;;;;5090908;28;20196;-74
2023/05/24 14:14:20;;;;;;;5.87;2.63;;;;;;;;;;5092309;28;20168;-74
2023/05/24 14:16:46;;;;;;;5.50;2.93;;;;;;;;;;5090487;28;20186;-74
2023/05/24 14:19:11;;;;;;;6.83;3.20;;;;;;;;;;5071875;28;20177;-74
2023/05/24 14:21:37;;;;;;;8.33;3.43;;;;;;;;;;5068658;28;20230;-74
2023/05/24 14:24:03;;;;;;;5.57;3.07;;;;;;;;;;5074636;28;20173;-74
2023/05/24 14:26:28;;;;;;;4.40;2.70;;;;;;;;;;5074292;28;20278;-74
2023/05/24 14:28:53;;;;;;;7.20;3.03;;;;;;;;;;5071358;28;20274;-74
2023/05/24 14:31:18;;;;;;;6.67;3.00;;;;;;;;;;5086662;28;20179;-74
2023/05/24 14:33:44;;;;;;;5.07;2.90;;;;;;;;;;5089050;28;20206;-74
2023/05/24 14:36:09;;;;;;;5.20;3.03;;;;;;;;;;5092797;28;20174;-74